Time;durP1;ratioP1;P1;durP2;ratioP2;P2;SDS_P1;SDS_P2;PMS_P1;PMS_P2;Temp;Humidity;BMP_temperature;BMP_pressure;BME280_temperature;BME280_humidity;BME280_pressure;Samples;Min_cycle;Max_cycle;Signal;HPM_P1;HPM_P2
2022/06/03 00:02:04;;;;;;;7.93;6.40;;;9.90;1.00;;;;;;5072731;28;20204;-87
2022/06/03 00:04:46;;;;;;;8.17;6.40;;;9.90;1.00;;;;;;5092634;28;20196;-88
2022/06/03 00:07:30;;;;;;;9.60;6.30;;;9.80;1.00;;;;;;5092669;28;20184;-88
2022/06/03 00:10:23;;;;;;;8.20;6.23;;;9.80;1.00;;;;;;5092539;28;20190;-89
2022/06/03 00:13:02;;;;;;;9.53;6.60;;;9.70;1.00;;;;;;5091947;28;20541;-87
2022/06/03 00:15:52;;;;;;;7.90;6.30;;;9.70;1.00;;;;;;5088331;28;20273;-89
2022/06/03 00:18:52;;;;;;;8.13;5.80;;;9.70;1.00;;;;;;5086280;28;20203;-87
2022/06/03 00:21:46;;;;;;;8.47;6.23;;;9.60;1.00;;;;;;5062167;28;20198;-87
2022/06/03 00:24:23;;;;;;;7.00;6.00;;;9.60;1.00;;;;;;5063937;28;20568;-87
2022/06/03 00:27:13;;;;;;;7.77;6.13;;;9.60;1.00;;;;;;5091682;28;20196;-87
2022/06/03 00:29:59;;;;;;;7.17;5.43;;;9.60;1.00;;;;;;5069906;28;20198;-87
2022/06/03 00:32:44;;;;;;;7.07;5.93;;;9.60;1.00;;;;;;5092485;28;20248;-90
2022/06/03 00:35:47;;;;;;;6.83;5.97;;;9.50;1.00;;;;;;5092237;28;20199;-86
2022/06/03 00:38:35;;;;;;;7.80;6.10;;;9.50;1.00;;;;;;5073752;28;20588;-88
2022/06/03 00:41:25;;;;;;;9.27;6.53;;;9.50;1.00;;;;;;5096024;28;20215;-87
2022/06/03 00:44:26;;;;;;;7.10;5.80;;;9.50;1.00;;;;;;5095875;28;20226;-87
2022/06/03 00:47:20;;;;;;;7.17;5.60;;;9.50;1.00;;;;;;5094612;28;20221;-88
2022/06/03 00:50:17;;;;;;;7.83;6.10;;;9.40;1.00;;;;;;5096204;28;20184;-86
2022/06/03 00:53:05;;;;;;;7.67;5.07;;;9.40;1.00;;;;;;5093092;28;20193;-89
2022/06/03 00:56:16;;;;;;;6.40;5.47;;;9.40;1.00;;;;;;5087438;28;20219;-87
2022/06/03 00:59:02;;;;;;;7.60;5.67;;;9.30;1.00;;;;;;5073040;28;20211;-87
2022/06/03 01:01:35;;;;;;;6.97;5.63;;;9.30;1.00;;;;;;5095691;28;20635;-89
2022/06/03 01:04:27;;;;;;;7.10;5.60;;;9.30;1.00;;;;;;5096032;28;20192;-88
2022/06/03 01:07:07;;;;;;;8.10;5.90;;;9.30;1.00;;;;;;5095388;28;20200;-88
2022/06/03 01:09:48;;;;;;;6.83;5.67;;;9.20;1.00;;;;;;5095566;28;20253;-90
2022/06/03 01:12:32;;;;;;;8.17;6.37;;;9.20;1.00;;;;;;5081426;28;20216;-88
2022/06/03 01:15:13;;;;;;;11.10;6.67;;;9.20;1.00;;;;;;5094920;28;20275;-87
2022/06/03 01:17:56;;;;;;;6.97;6.27;;;9.20;1.00;;;;;;5095245;28;20229;-87
2022/06/03 01:20:40;;;;;;;9.83;6.57;;;9.20;1.00;;;;;;5078541;28;20196;-90
2022/06/03 01:23:40;;;;;;;6.93;6.10;;;9.10;1.00;;;;;;5086645;28;20193;-87
2022/06/03 01:26:31;;;;;;;7.67;6.17;;;9.20;1.00;;;;;;5070293;28;20558;-88
2022/06/03 01:29:32;;;;;;;8.37;6.10;;;9.20;1.00;;;;;;5095390;28;20196;-87
2022/06/03 01:32:35;;;;;;;8.10;6.43;;;9.20;1.00;;;;;;5081007;28;20621;-87
2022/06/03 01:35:28;;;;;;;7.03;6.17;;;9.20;1.00;;;;;;5086138;28;20347;-86
2022/06/03 01:37:57;;;;;;;7.63;6.47;;;9.20;1.00;;;;;;5086014;28;20267;-86
2022/06/03 01:40:49;;;;;;;8.57;6.20;;;9.10;1.00;;;;;;5095104;28;20197;-87
2022/06/03 01:43:43;;;;;;;9.17;6.70;;;9.10;1.00;;;;;;5070114;28;20208;-89
2022/06/03 01:46:31;;;;;;;7.20;6.23;;;9.10;1.00;;;;;;5087291;28;20217;-88
2022/06/03 01:49:31;;;;;;;9.87;6.73;;;9.10;1.00;;;;;;5066203;28;20196;-87
2022/06/03 01:52:34;;;;;;;9.00;6.80;;;9.10;1.00;;;;;;5080874;28;20192;-87
2022/06/03 01:55:58;;;;;;;8.57;6.57;;;9.10;1.00;;;;;;5095114;28;20578;-87
2022/06/03 01:59:04;;;;;;;8.30;6.97;;;9.10;1.00;;;;;;5093985;28;20216;-87
2022/06/03 02:02:13;;;;;;;8.70;6.37;;;9.10;1.00;;;;;;5094953;28;20640;-88
2022/06/03 02:05:07;;;;;;;7.93;6.53;;;9.10;1.00;;;;;;5063581;28;20202;-88
2022/06/03 02:08:00;;;;;;;9.60;7.30;;;9.00;1.00;;;;;;5088687;28;20183;-87
2022/06/03 02:11:01;;;;;;;8.83;7.37;;;9.00;1.00;;;;;;5088701;28;20194;-87
2022/06/03 02:13:58;;;;;;;9.57;6.83;;;9.00;1.00;;;;;;5094268;28;20188;-88
2022/06/03 02:16:58;;;;;;;8.30;6.77;;;9.00;1.00;;;;;;5070139;28;20220;-88
2022/06/03 02:20:07;;;;;;;9.37;7.30;;;9.00;1.00;;;;;;5074138;28;20680;-90
2022/06/03 02:23:17;;;;;;;11.17;7.67;;;9.00;1.00;;;;;;5073893;28;20191;-90
2022/06/03 02:26:06;;;;;;;9.50;7.47;;;9.00;1.00;;;;;;5069012;28;20219;-89
2022/06/03 02:30:24;;;;;;;11.00;8.37;;;9.00;1.00;;;;;;5072222;28;20237;-88
2022/06/03 02:31:55;;;;;;;9.27;7.70;;;9.00;1.00;;;;;;5070538;28;20640;-90
2022/06/03 02:34:49;;;;;;;9.70;7.50;;;9.00;1.00;;;;;;5074032;28;20192;-90
2022/06/03 02:37:41;;;;;;;14.67;8.20;;;9.00;1.00;;;;;;5073532;28;20214;-88
2022/06/03 02:41:00;;;;;;;10.73;7.67;;;9.00;1.00;;;;;;5074040;28;20203;-89
2022/06/03 02:43:58;;;;;;;10.40;8.10;;;9.00;84.80;;;;;;5079169;28;20270;-90
2022/06/03 02:47:06;;;;;;;11.80;8.13;;;9.00;1.00;;;;;;5093639;28;20648;-88
2022/06/03 02:50:16;;;;;;;11.00;8.40;;;9.00;27.70;;;;;;5094033;28;20626;-90
2022/06/03 02:53:21;;;;;;;13.13;8.30;;;9.00;43.90;;;;;;5077673;28;20249;-88
2022/06/03 02:56:11;;;;;;;11.83;8.40;;;9.10;35.30;;;;;;5094092;28;20245;-89
2022/06/03 02:59:08;;;;;;;12.90;9.20;;;9.10;88.40;;;;;;5094035;28;20210;-88
2022/06/03 03:01:53;;;;;;;12.80;9.20;;;9.10;99.90;;;;;;5091042;28;20707;-87
2022/06/03 03:04:44;;;;;;;12.13;9.23;;;9.20;51.90;;;;;;5093374;28;20192;-88
2022/06/03 03:07:44;;;;;;;11.57;9.50;;;9.20;97.80;;;;;;5087050;28;20199;-88
2022/06/03 03:10:22;;;;;;;13.53;9.67;;;9.20;94.60;;;;;;5093992;28;20210;-88
2022/06/03 03:13:19;;;;;;;15.97;9.20;;;9.20;55.90;;;;;;5089007;28;20197;-88
2022/06/03 03:16:23;;;;;;;13.17;9.53;;;9.30;99.90;;;;;;5072614;28;20253;-88
2022/06/03 03:19:27;;;;;;;14.57;9.10;;;9.30;99.90;;;;;;5073084;28;20219;-86
2022/06/03 03:22:33;;;;;;;12.10;9.10;;;9.30;99.90;;;;;;5072572;28;20552;-88
2022/06/03 03:25:29;;;;;;;12.37;9.30;;;9.40;99.90;;;;;;5064326;28;20223;-88
2022/06/03 03:28:29;;;;;;;13.20;9.17;;;9.40;99.90;;;;;;5077302;28;20714;-88
2022/06/03 03:31:20;;;;;;;13.67;9.47;;;9.50;99.90;;;;;;5077560;28;20196;-88
2022/06/03 03:34:10;;;;;;;12.70;9.27;;;9.50;99.90;;;;;;5078874;28;20192;-88
2022/06/03 03:37:16;;;;;;;12.80;9.03;;;9.60;99.90;;;;;;5072397;28;20201;-88
2022/06/03 03:40:08;;;;;;;13.87;9.20;;;9.70;99.90;;;;;;5034838;28;20270;-88
2022/06/03 03:43:07;;;;;;;11.77;9.50;;;9.80;99.90;;;;;;5072679;28;20558;-89
2022/06/03 03:46:17;;;;;;;10.87;8.57;;;10.10;1.00;;;;;;5059633;28;20191;-91
2022/06/03 03:49:20;;;;;;;9.17;7.30;;;11.30;99.90;;;;;;5066761;28;20188;-88
2022/06/03 03:52:22;;;;;;;13.20;6.40;;;12.90;99.90;;;;;;5093133;28;20203;-88
2022/06/03 03:55:18;;;;;;;8.97;6.47;;;14.60;99.90;;;;;;5078607;28;20179;-88
2022/06/03 03:58:03;;;;;;;;;;;16.10;99.90;;;;;;5092806;28;20044;-89
2022/06/03 04:01:03;;;;;;;61.92;32.35;;;17.40;1.00;;;;;;5092860;28;20179;-89
2022/06/03 04:04:06;;;;;;;84.68;41.03;;;18.70;1.00;;;;;;5092383;28;20255;-87
2022/06/03 04:06:59;;;;;;;82.22;41.13;;;20.00;1.00;;;;;;5092844;28;20199;-87
2022/06/03 04:09:53;;;;;;;99.85;52.53;;;20.90;99.90;;;;;;5071353;28;20195;-89
2022/06/03 04:12:41;;;;;;;;;;;21.90;47.90;;;;;;5092245;28;20055;-87
2022/06/03 04:15:43;;;;;;;7.55;6.68;;;22.50;1.00;;;;;;5074224;28;20738;-89
2022/06/03 04:18:28;;;;;;;;;;;23.10;1.00;;;;;;5092506;28;20489;-85
2022/06/03 04:21:12;;;;;;;;;;;23.70;1.00;;;;;;5085631;28;19954;-84
2022/06/03 04:24:15;;;;;;;6.97;6.20;;;24.50;1.00;;;;;;5091947;28;20189;-85
2022/06/03 04:26:59;;;;;;;;;;;25.10;1.00;;;;;;5092758;28;20062;-87
2022/06/03 04:30:07;;;;;;;6.57;5.70;;;25.70;1.00;;;;;;5077939;28;20642;-83
2022/06/03 04:33:22;;;;;;;11.27;7.88;;;26.40;1.00;;;;;;5092073;28;20183;-85
2022/06/03 04:36:53;;;;;;;15.10;11.00;;;27.20;1.00;;;;;;5091804;28;20615;-85
2022/06/03 04:39:59;;;;;;;14.07;7.38;;;28.00;1.00;;;;;;5091948;28;20222;-84
2022/06/03 04:43:12;;;;;;;7.75;5.70;;;28.70;1.00;;;;;;5080392;28;20580;-85
2022/06/03 04:46:17;;;;;;;7.78;5.05;;;29.30;1.00;;;;;;5081662;28;20186;-89
2022/06/03 04:49:29;;;;;;;7.35;4.75;;;29.70;1.00;;;;;;5091765;28;20188;-84
2022/06/03 04:52:14;;;;;;;;;;;30.10;1.00;;;;;;5092280;28;20098;-85
2022/06/03 04:55:23;;;;;;;8.45;4.82;;;30.50;1.00;;;;;;5092077;28;20205;-85
2022/06/03 04:58:20;;;;;;;;;;;31.20;1.00;;;;;;5075853;28;20064;-85
2022/06/03 05:01:30;;;;;;;6.95;6.07;;;31.80;1.00;;;;;;5025929;28;20721;-85
2022/06/03 05:04:39;;;;;;;4.72;4.00;;;32.50;1.00;;;;;;5092128;28;20196;-83
2022/06/03 05:07:54;;;;;;;5.03;4.00;;;33.00;1.00;;;;;;5090514;28;20187;-84
2022/06/03 05:10:58;;;;;;;5.22;4.00;;;33.40;1.00;;;;;;5091499;28;20240;-84
2022/06/03 05:13:58;;;;;;;6.25;3.97;;;33.80;1.00;;;;;;5091770;28;20183;-86
2022/06/03 05:17:00;;;;;;;4.47;3.63;;;34.00;1.00;;;;;;5091759;28;20755;-88
2022/06/03 05:19:52;;;;;;;23.67;6.13;;;34.20;1.00;;;;;;5066973;28;20647;-87
2022/06/03 05:22:58;;;;;;;4.80;3.83;;;34.40;1.00;;;;;;5090247;28;20273;-88
2022/06/03 05:25:52;;;;;;;6.90;3.88;;;34.60;1.00;;;;;;5094627;28;20187;-88
2022/06/03 05:28:43;;;;;;;11.05;4.40;;;34.70;1.00;;;;;;5095204;28;20707;-87
2022/06/03 05:31:44;;;;;;;9.30;3.70;;;34.70;1.00;;;;;;5067972;28;20194;-88
2022/06/03 05:34:49;;;;;;;4.82;3.67;;;34.70;1.00;;;;;;5094954;28;20186;-88
2022/06/03 05:37:47;;;;;;;5.85;4.07;;;34.90;1.00;;;;;;5094828;28;20203;-89
2022/06/03 05:40:53;;;;;;;5.57;3.20;;;35.30;1.00;;;;;;5095362;28;20195;-88
2022/06/03 05:43:40;;;;;;;3.22;2.88;;;35.40;1.00;;;;;;5074964;28;20186;-89
2022/06/03 05:46:13;;;;;;;6.63;2.90;;;35.40;1.00;;;;;;5095080;28;20195;-87
2022/06/03 05:49:08;;;;;;;5.22;3.00;;;35.30;1.00;;;;;;5067687;28;20210;-88
2022/06/03 05:51:48;;;;;;;6.15;2.97;;;35.50;1.00;;;;;;5076977;28;20204;-88
2022/06/03 05:54:31;;;;;;;4.68;2.88;;;35.80;1.00;;;;;;5094697;28;20198;-87
2022/06/03 05:57:15;;;;;;;4.90;2.97;;;36.10;1.00;;;;;;5094831;28;20191;-88
2022/06/03 06:00:01;;;;;;;9.38;3.33;;;35.90;1.00;;;;;;5094998;28;20191;-87
2022/06/03 06:02:36;;;;;;;10.63;3.38;;;35.80;1.00;;;;;;5071006;28;20282;-88
2022/06/03 06:05:17;;;;;;;6.43;2.80;;;35.90;1.00;;;;;;5094371;28;20191;-89
2022/06/03 06:07:54;;;;;;;9.77;3.10;;;36.10;1.00;;;;;;5094686;28;20193;-88
2022/06/03 06:10:40;;;;;;;11.63;8.05;;;36.40;1.00;;;;;;5094550;28;20210;-90
2022/06/03 06:13:30;;;;;;;8.60;3.13;;;36.80;1.00;;;;;;5094924;28;20173;-89
2022/06/03 06:16:06;;;;;;;2.55;2.35;;;37.20;1.00;;;;;;5068265;28;20663;-89
2022/06/03 06:18:43;;;;;;;4.22;2.90;;;37.50;1.00;;;;;;5094338;28;20194;-88
2022/06/03 06:21:40;;;;;;;2.47;2.28;;;37.90;1.00;;;;;;5094713;28;20194;-89
2022/06/03 06:24:14;;;;;;;3.33;2.40;;;38.20;1.00;;;;;;5094206;28;20557;-89
2022/06/03 06:27:17;;;;;;;3.13;2.17;;;38.50;1.00;;;;;;5094572;28;20186;-88
2022/06/03 06:30:07;;;;;;;2.58;2.13;;;38.50;1.00;;;;;;5060298;28;20264;-87
2022/06/03 06:32:56;;;;;;;63.63;55.45;;;38.50;1.00;;;;;;5094074;28;20194;-87
2022/06/03 06:35:55;;;;;;;2.63;2.13;;;38.50;1.00;;;;;;5093896;28;20205;-88
2022/06/03 06:38:31;;;;;;;4.53;2.10;;;38.50;1.00;;;;;;5072986;28;20191;-88
2022/06/03 06:41:17;;;;;;;7.18;2.80;;;38.20;1.00;;;;;;5093524;28;20698;-86
2022/06/03 06:43:51;;;;;;;4.00;2.20;;;38.30;1.00;;;;;;5069626;28;20186;-88
2022/06/03 06:46:32;;;;;;;3.20;1.90;;;38.20;1.00;;;;;;5093521;28;20191;-88
2022/06/03 06:49:12;;;;;;;2.17;1.70;;;38.20;1.00;;;;;;5093568;28;20202;-87
2022/06/03 06:52:00;;;;;;;2.20;1.38;;;38.30;1.00;;;;;;5093612;28;20183;-87
2022/06/03 06:54:47;;;;;;;8.75;2.80;;;38.40;1.00;;;;;;5093464;28;20191;-88
2022/06/03 06:57:18;;;;;;;5.05;3.75;;;38.20;1.00;;;;;;5067236;28;20198;-90
2022/06/03 06:59:52;;;;;;;3.47;1.40;;;38.30;1.00;;;;;;5093357;28;20191;-89
2022/06/03 07:02:25;;;;;;;1.85;1.05;;;38.50;1.00;;;;;;5093709;28;20195;-88
2022/06/03 07:04:57;;;;;;;1.75;1.23;;;38.50;1.00;;;;;;5093671;28;20191;-88
2022/06/03 07:07:30;;;;;;;1.48;1.10;;;38.30;1.00;;;;;;5093242;28;20187;-87
2022/06/03 07:10:02;;;;;;;4.60;1.27;;;38.00;1.00;;;;;;5093463;28;20604;-88
2022/06/03 07:12:36;;;;;;;3.78;1.30;;;37.90;1.00;;;;;;5093532;28;20235;-87
2022/06/03 07:15:11;;;;;;;9.25;2.55;;;37.80;1.00;;;;;;5093051;28;20663;-87
2022/06/03 07:20:42;;;;;;;2.67;1.20;;;37.80;1.00;;;;;;5092985;28;20239;-87
2022/06/03 07:23:16;;;;;;;2.47;1.90;;;37.90;1.00;;;;;;5093001;28;20232;-88
2022/06/03 07:25:47;;;;;;;1.98;1.05;;;38.00;1.00;;;;;;5093319;28;20240;-88
2022/06/03 07:28:31;;;;;;;1.80;1.10;;;38.10;1.00;;;;;;5093484;28;20195;-87
2022/06/03 07:31:14;;;;;;;4.32;1.98;;;38.50;1.00;;;;;;5092578;28;20210;-88
2022/06/03 07:33:57;;;;;;;1.45;1.10;;;38.30;1.00;;;;;;5093027;28;20190;-87
2022/06/03 07:36:32;;;;;;;1.63;0.90;;;38.20;1.00;;;;;;5067802;28;20191;-88
2022/06/03 07:39:30;;;;;;;3.67;1.35;;;38.30;1.00;;;;;;5092770;28;20710;-88
2022/06/03 07:42:06;;;;;;;1.73;1.15;;;38.70;1.00;;;;;;5085151;28;20191;-88
2022/06/03 07:44:43;;;;;;;2.88;1.15;;;39.10;1.00;;;;;;5087279;28;20237;-89
2022/06/03 07:47:15;;;;;;;2.80;1.20;;;39.50;1.00;;;;;;5092317;28;20680;-88
2022/06/03 07:49:50;;;;;;;2.75;0.98;;;39.70;1.00;;;;;;5092813;28;20203;-88
2022/06/03 07:52:32;;;;;;;7.55;1.38;;;39.60;1.00;;;;;;5092474;28;20560;-88
2022/06/03 07:55:00;;;;;;;1.50;1.00;;;39.50;1.00;;;;;;5092276;28;20199;-88
2022/06/03 07:57:29;;;;;;;5.45;1.48;;;39.20;1.00;;;;;;5092270;28;20198;-88
2022/06/03 07:59:59;;;;;;;2.15;1.30;;;39.30;1.00;;;;;;5092467;28;20202;-88
2022/06/03 08:02:28;;;;;;;1.00;0.90;;;39.60;1.00;;;;;;5092636;28;20218;-88
2022/06/03 08:05:06;;;;;;;2.10;1.40;;;39.50;1.00;;;;;;5092437;28;20655;-88
2022/06/03 08:13:07;;;;;;;9.02;1.92;;;39.30;1.00;;;;;;5092225;28;20659;-88
2022/06/03 08:15:37;;;;;;;7.25;1.90;;;39.30;1.00;;;;;;5092123;28;20211;-87
2022/06/03 08:18:08;;;;;;;3.42;1.05;;;39.40;1.00;;;;;;5092104;28;20199;-87
2022/06/03 08:20:42;;;;;;;1.73;1.17;;;39.40;1.00;;;;;;5092223;28;20191;-88
2022/06/03 08:23:10;;;;;;;1.48;1.10;;;38.90;1.00;;;;;;5092395;28;20190;-88
2022/06/03 08:25:41;;;;;;;2.15;0.90;;;38.60;1.00;;;;;;5091921;28;20283;-89
2022/06/03 08:28:14;;;;;;;3.22;1.00;;;38.40;1.00;;;;;;5092401;28;20578;-87
2022/06/03 08:30:42;;;;;;;2.92;1.10;;;38.30;1.00;;;;;;5091813;28;20207;-88
2022/06/03 08:33:14;;;;;;;2.50;1.20;;;38.40;1.00;;;;;;5092228;28;20198;-87
2022/06/03 08:35:45;;;;;;;3.28;1.00;;;38.80;1.00;;;;;;5091825;28;20648;-87
2022/06/03 08:38:15;;;;;;;1.38;1.00;;;39.30;1.00;;;;;;5091913;28;20191;-87
2022/06/03 08:40:50;;;;;;;1.10;0.95;;;39.30;1.00;;;;;;5092136;28;20190;-89
2022/06/03 08:43:26;;;;;;;5.97;5.38;;;38.90;1.00;;;;;;5078060;28;20193;-89
2022/06/03 08:45:56;;;;;;;1.52;1.10;;;38.80;1.00;;;;;;5092218;28;20195;-87
2022/06/03 08:48:31;;;;;;;1.30;1.20;;;38.70;1.00;;;;;;5091734;28;20183;-87
2022/06/03 08:51:01;;;;;;;2.53;1.05;;;38.90;1.00;;;;;;5092137;28;20198;-87
2022/06/03 08:53:37;;;;;;;2.30;1.00;;;38.80;1.00;;;;;;5091631;28;20190;-87
2022/06/03 08:56:08;;;;;;;2.45;1.05;;;39.00;1.00;;;;;;5092177;28;20195;-87
2022/06/03 08:58:43;;;;;;;1.58;1.08;;;38.90;1.00;;;;;;5093586;28;20187;-87
2022/06/03 09:01:19;;;;;;;2.08;0.90;;;38.80;1.00;;;;;;5095723;28;20197;-87
2022/06/03 09:03:54;;;;;;;1.20;1.10;;;38.50;1.00;;;;;;5095782;28;20662;-87
2022/06/03 09:06:50;;;;;;;2.88;1.00;;;38.30;1.00;;;;;;5095986;28;20198;-88
2022/06/03 09:09:26;;;;;;;2.83;1.10;;;38.30;1.00;;;;;;5067582;28;20206;-87
2022/06/03 09:12:04;;;;;;;7.32;1.60;;;38.20;1.00;;;;;;5095532;28;20202;-87
2022/06/03 09:14:33;;;;;;;2.33;1.60;;;38.10;1.00;;;;;;5095694;28;20184;-88
2022/06/03 09:17:07;;;;;;;2.25;1.20;;;37.70;1.00;;;;;;5095598;28;20226;-88
2022/06/03 09:19:41;;;;;;;1.00;0.90;;;37.50;1.00;;;;;;5095370;28;20221;-87
2022/06/03 09:22:22;;;;;;;2.63;2.13;;;37.50;1.00;;;;;;5095469;28;20206;-87
2022/06/03 09:24:49;;;;;;;3.67;1.60;;;37.50;1.00;;;;;;5095454;28;20187;-87
2022/06/03 09:27:17;;;;;;;13.32;6.90;;;37.30;1.00;;;;;;5095203;28;20194;-86
2022/06/03 09:29:52;;;;;;;2.13;1.25;;;37.00;1.00;;;;;;5095356;28;20188;-87
2022/06/03 09:32:20;;;;;;;6.68;1.83;;;36.60;1.00;;;;;;5095744;28;20248;-86
2022/06/03 09:34:52;;;;;;;2.55;1.20;;;36.00;1.00;;;;;;5095504;28;20184;-87
2022/06/03 09:37:24;;;;;;;2.28;1.20;;;35.50;1.00;;;;;;5095054;28;20188;-86
2022/06/03 09:39:53;;;;;;;1.45;1.17;;;34.70;1.00;;;;;;5095063;28;25151;-86
2022/06/03 09:42:20;;;;;;;;;;;34.10;1.00;;;;;;5085261;28;20041;-86
2022/06/03 09:44:50;;;;;;;1.40;1.20;;;33.40;1.00;;;;;;5091397;28;20484;-86
2022/06/03 09:47:21;;;;;;;1.70;1.20;;;32.80;1.00;;;;;;5094951;28;20628;-87
2022/06/03 09:49:53;;;;;;;2.53;1.20;;;32.40;1.00;;;;;;5094812;28;20540;-86
2022/06/03 09:52:22;;;;;;;;;;;31.90;1.00;;;;;;5095581;28;20090;-86
2022/06/03 09:54:51;;;;;;;4.22;1.77;;;31.50;1.00;;;;;;5094990;28;20025;-86
2022/06/03 09:57:22;;;;;;;2.22;1.30;;;31.20;1.00;;;;;;5095068;28;20184;-86
2022/06/03 09:59:58;;;;;;;1.50;1.40;;;30.90;1.00;;;;;;5095053;28;20241;-86
2022/06/03 10:02:26;;;;;;;2.58;1.45;;;30.40;1.00;;;;;;5094486;28;20191;-86
2022/06/03 10:04:55;;;;;;;1.67;1.08;;;29.80;1.00;;;;;;5094724;28;20214;-86
2022/06/03 10:07:26;;;;;;;3.17;1.27;;;29.40;1.00;;;;;;5080828;28;20191;-85
2022/06/03 10:12:50;;;;;;;3.20;1.55;;;29.00;1.00;;;;;;5070066;28;20202;-86
2022/06/03 10:15:39;;;;;;;5.93;1.95;;;28.90;1.00;;;;;;5094006;28;20261;-85
2022/06/03 10:18:29;;;;;;;2.03;1.15;;;29.00;1.00;;;;;;5094237;28;20636;-86
2022/06/03 10:21:18;;;;;;;4.70;1.40;;;29.00;1.00;;;;;;5065983;28;20660;-86
2022/06/03 10:23:47;;;;;;;1.33;1.20;;;28.90;1.00;;;;;;5094147;28;20663;-85
2022/06/03 10:26:20;;;;;;;1.73;1.13;;;28.90;1.00;;;;;;5094024;28;20699;-85
2022/06/03 10:28:50;;;;;;;1.30;1.20;;;28.90;1.00;;;;;;5094139;28;20188;-86
2022/06/03 10:31:20;;;;;;;1.50;1.20;;;28.80;1.00;;;;;;5093888;28;20212;-86
2022/06/03 10:33:53;;;;;;;2.92;1.35;;;28.80;1.00;;;;;;5094131;28;20238;-86
2022/06/03 10:36:23;;;;;;;;;;;28.80;1.00;;;;;;5067956;28;20052;-86
2022/06/03 10:38:51;;;;;;;;;;;28.70;1.00;;;;;;5094383;28;20010;-87
2022/06/03 10:41:20;;;;;;;;;;;28.60;1.00;;;;;;5092114;28;20372;-87
2022/06/03 10:43:48;;;;;;;;;;;28.40;1.00;;;;;;5082447;28;19920;-84
2022/06/03 10:46:17;;;;;;;;;;;28.40;1.00;;;;;;5094218;28;19927;-86
2022/06/03 10:48:44;;;;;;;;;;;28.30;1.00;;;;;;5093987;28;20376;-85
2022/06/03 10:51:16;;;;;;;;;;;28.10;1.00;;;;;;5094199;28;19943;-86
2022/06/03 11:02:29;;;;;;;1.90;1.50;;;27.70;1.00;;;;;;5069603;28;20611;-86
2022/06/03 11:05:10;;;;;;;2.05;1.30;;;27.50;1.00;;;;;;5093090;28;20206;-86
2022/06/03 11:07:37;;;;;;;2.13;1.50;;;27.40;1.00;;;;;;5093588;28;20267;-84
2022/06/03 11:10:08;;;;;;;1.20;1.10;;;27.40;1.00;;;;;;5093318;28;20200;-87
2022/06/03 11:12:35;;;;;;;;;;;27.30;1.00;;;;;;5093914;28;20047;-85
2022/06/03 11:15:22;;;;;;;;;;;27.20;1.00;;;;;;5093335;28;19928;-85
2022/06/03 11:17:49;;;;;;;;;;;27.00;1.00;;;;;;5070490;28;19920;-85
2022/06/03 11:20:19;;;;;;;;;;;26.90;1.00;;;;;;5092892;28;19928;-84
2022/06/03 11:22:46;;;;;;;;;;;26.80;1.00;;;;;;5093050;28;19935;-84
2022/06/03 11:25:17;;;;;;;;;;;26.80;1.00;;;;;;5093701;28;19958;-84
2022/06/03 11:27:49;;;;;;;;;;;26.90;1.00;;;;;;5065491;28;19920;-85
2022/06/03 11:30:19;;;;;;;;;;;27.00;1.00;;;;;;5093114;28;20407;-85
2022/06/03 11:32:48;;;;;;;;;;;26.80;1.00;;;;;;5093262;28;20561;-85
2022/06/03 11:35:19;;;;;;;;;;;26.80;1.00;;;;;;5093072;28;19920;-87
2022/06/03 11:37:49;;;;;;;;;;;26.70;1.00;;;;;;5092951;28;19928;-86
2022/06/03 11:40:20;;;;;;;;;;;26.60;1.00;;;;;;5092962;28;19931;-85
2022/06/03 11:42:48;;;;;;;;;;;26.60;1.00;;;;;;5078718;28;20399;-85
2022/06/03 11:45:16;;;;;;;;;;;26.50;1.00;;;;;;5065247;28;19919;-85
2022/06/03 11:47:49;;;;;;;;;;;26.50;1.00;;;;;;5093275;28;19974;-85
2022/06/03 11:50:17;;;;;;;;;;;26.40;1.00;;;;;;5093089;28;19923;-85
2022/06/03 11:52:44;;;;;;;;;;;26.20;1.00;;;;;;5093076;28;19920;-87
2022/06/03 11:55:11;;;;;;;;;;;26.20;1.00;;;;;;5092668;28;20380;-85
2022/06/03 11:57:41;;;;;;;;;;;26.20;1.00;;;;;;5093110;28;19920;-84
2022/06/03 12:00:12;;;;;;;;;;;26.20;1.00;;;;;;5092515;28;19928;-84
2022/06/03 12:02:41;;;;;;;;;;;26.20;1.00;;;;;;5092797;28;19927;-85
2022/06/03 12:05:10;;;;;;;;;;;26.10;1.00;;;;;;5092856;28;19927;-85
2022/06/03 12:07:42;;;;;;;;;;;26.10;1.00;;;;;;5092881;28;19928;-85
2022/06/03 12:10:12;;;;;;;;;;;26.10;1.00;;;;;;5092522;28;19930;-85
2022/06/03 12:15:33;;;;;;;;;;;26.20;1.00;;;;;;5092809;28;20265;-85
2022/06/03 12:18:16;;;;;;;;;;;26.20;1.00;;;;;;5092536;28;20300;-85
2022/06/03 12:20:52;;;;;;;;;;;26.10;1.00;;;;;;5078147;28;19919;-85
2022/06/03 12:23:37;;;;;;;;;;;25.90;1.00;;;;;;5092483;28;20304;-86
2022/06/03 12:26:09;;;;;;;;;;;25.80;1.00;;;;;;5065040;28;19924;-86
2022/06/03 12:28:45;;;;;;;;;;;25.80;1.00;;;;;;5092403;28;19924;-85
2022/06/03 12:31:14;;;;;;;;;;;25.90;1.00;;;;;;5065175;28;20386;-87
2022/06/03 12:33:47;;;;;;;;;;;25.80;1.00;;;;;;5096122;28;20276;-88
2022/06/03 12:36:35;;;;;;;;;;;25.80;1.00;;;;;;5096738;28;20375;-89
2022/06/03 12:39:22;;;;;;;;;;;25.50;1.00;;;;;;5092922;28;19920;-87
2022/06/03 12:42:03;;;;;;;;;;;25.40;1.00;;;;;;5086707;28;19920;-87
2022/06/03 12:44:35;;;;;;;;;;;25.40;1.00;;;;;;5089967;28;19920;-85
2022/06/03 12:47:20;;;;;;;;;;;25.50;1.00;;;;;;5091686;28;19924;-86
2022/06/03 12:49:49;;;;;;;;;;;25.60;1.00;;;;;;5076254;28;19931;-88
2022/06/03 12:52:30;;;;;;;;;;;25.60;1.00;;;;;;5076080;28;19921;-86
2022/06/03 12:54:58;;;;;;;;;;;25.60;1.00;;;;;;5075924;28;19924;-86
2022/06/03 12:57:27;;;;;;;;;;;25.50;1.00;;;;;;5075941;28;19921;-86
2022/06/03 12:59:58;;;;;;;;;;;25.50;1.00;;;;;;5076197;28;19921;-87
2022/06/03 13:02:26;;;;;;;;;;;25.60;1.00;;;;;;5077656;28;19927;-86
2022/06/03 13:05:15;;;;;;;;;;;25.60;1.00;;;;;;5081694;28;19927;-85
2022/06/03 13:07:56;;;;;;;;;;;25.60;1.00;;;;;;5084019;28;19959;-86
2022/06/03 13:10:28;;;;;;;;;;;25.50;1.00;;;;;;5098420;28;19928;-89
2022/06/03 13:12:55;;;;;;;;;;;25.60;1.00;;;;;;5087965;28;19927;-87
2022/06/03 13:15:42;;;;;;;;;;;25.60;1.00;;;;;;5080361;28;19921;-86
2022/06/03 13:18:13;;;;;;;;;;;25.60;1.00;;;;;;5076536;28;19956;-87
2022/06/03 13:20:41;;;;;;;;;;;25.50;1.00;;;;;;5075733;28;19990;-88
2022/06/03 13:23:29;;;;;;;;;;;25.50;1.00;;;;;;5075565;28;19920;-88
2022/06/03 13:25:56;;;;;;;;;;;25.40;1.00;;;;;;5073406;28;20030;-86
2022/06/03 13:28:36;;;;;;;;;;;25.40;1.00;;;;;;5075689;28;19943;-88
2022/06/03 13:31:05;;;;;;;;;;;25.40;1.00;;;;;;5085996;28;19927;-85
2022/06/03 13:33:34;;;;;;;;;;;25.40;1.00;;;;;;5085144;28;19920;-86
2022/06/03 13:36:03;;;;;;;;;;;25.40;1.00;;;;;;5076740;28;19926;-87
2022/06/03 13:38:40;;;;;;;;;;;25.40;1.00;;;;;;5075682;28;19966;-88
2022/06/03 13:44:05;;;;;;;;;;;25.50;1.00;;;;;;5085283;28;20061;-88
2022/06/03 13:46:33;;;;;;;;;;;25.50;1.00;;;;;;5095630;28;19920;-87
2022/06/03 13:49:02;;;;;;;;;;;25.50;1.00;;;;;;5078616;28;19981;-85
2022/06/03 13:51:36;;;;;;;;;;;25.50;1.00;;;;;;5088281;28;19920;-87
2022/06/03 13:54:07;;;;;;;;;;;25.50;1.00;;;;;;5074757;28;19920;-86
2022/06/03 13:56:34;;;;;;;;;;;25.40;1.00;;;;;;5074516;28;20016;-85
2022/06/03 13:59:02;;;;;;;;;;;25.30;1.00;;;;;;5074654;28;19928;-85
2022/06/03 14:01:31;;;;;;;;;;;25.30;1.00;;;;;;5074865;28;20007;-85
2022/06/03 14:04:00;;;;;;;;;;;25.30;1.00;;;;;;5074533;28;19924;-85
2022/06/03 14:06:35;;;;;;;;;;;25.30;1.00;;;;;;5075042;28;19924;-85
2022/06/03 14:09:08;;;;;;;;;;;25.20;1.00;;;;;;5074826;28;19927;-88
2022/06/03 14:11:37;;;;;;;;;;;25.20;1.00;;;;;;5073947;28;19928;-88
2022/06/03 14:14:08;;;;;;;;;;;25.30;1.00;;;;;;5074181;28;20316;-87
2022/06/03 14:16:39;;;;;;;;;;;25.30;1.00;;;;;;5075040;28;19953;-85
2022/06/03 14:19:21;;;;;;;;;;;25.40;1.00;;;;;;5073878;28;20440;-86
2022/06/03 14:21:50;;;;;;;;;;;25.40;1.00;;;;;;5074595;28;19964;-85
2022/06/03 14:24:21;;;;;;;;;;;25.40;1.00;;;;;;5074139;28;19920;-84
2022/06/03 14:26:52;;;;;;;;;;;25.40;1.00;;;;;;5074190;28;19970;-89
2022/06/03 14:29:21;;;;;;;;;;;25.40;1.00;;;;;;5074441;28;19924;-84
2022/06/03 14:31:51;;;;;;;;;;;25.40;1.00;;;;;;5073942;28;19920;-84
2022/06/03 14:34:25;;;;;;;2.15;1.40;;;25.40;1.00;;;;;;5073621;28;20021;-86
2022/06/03 14:36:56;;;;;;;1.75;1.40;;;25.40;1.00;;;;;;5073851;28;20200;-86
2022/06/03 14:39:26;;;;;;;2.05;1.50;;;25.40;1.00;;;;;;5077723;28;20195;-84
2022/06/03 14:41:57;;;;;;;2.88;1.40;;;25.40;1.00;;;;;;5089783;28;20253;-87
2022/06/03 14:44:28;;;;;;;3.20;1.40;;;25.30;1.00;;;;;;5088182;28;20188;-84
2022/06/03 14:46:59;;;;;;;1.75;1.50;;;25.30;1.00;;;;;;5067197;28;20697;-85
2022/06/03 14:49:34;;;;;;;3.78;1.40;;;25.20;1.00;;;;;;5072481;28;20200;-85
2022/06/03 14:52:08;;;;;;;3.00;1.42;;;25.20;1.00;;;;;;5068361;28;20208;-86
2022/06/03 14:54:40;;;;;;;1.35;1.25;;;25.20;1.00;;;;;;5073261;28;20561;-86
2022/06/03 14:57:08;;;;;;;2.88;1.27;;;25.20;1.00;;;;;;5072304;28;20651;-86
2022/06/03 15:00:03;;;;;;;1.70;1.60;;;25.20;1.00;;;;;;5073181;28;20663;-86
2022/06/03 15:02:41;;;;;;;1.55;1.45;;;25.20;1.00;;;;;;5073549;28;20199;-86
2022/06/03 15:05:22;;;;;;;1.70;1.20;;;25.30;1.00;;;;;;5072599;28;20192;-85
2022/06/03 15:07:57;;;;;;;3.63;1.50;;;25.20;1.00;;;;;;5072780;28;20659;-86
2022/06/03 15:10:27;;;;;;;2.08;1.10;;;25.20;1.00;;;;;;5072829;28;20191;-85